VLG49UC EGLL-LECO
Flight info
| Callsign | VLG49UC |
|---|---|
| Flight time | 1h 37m |
| Altitude | 37000 |
| Route | GASGU N866 SAM M195 LORKU/N0441F390 DCT EBOMO DCT COQUE DCT KORUL DCT KORAV |
| Aircraft | A320/M-SDE3FGHIRWY/LB1 |
Departure
| Time | 2026-05-05 13:17 |
|---|---|
| Airport | London Heathrow Airport (EGLL) |
Arrival
| Time | 2026-05-05 14:54 |
|---|---|
| Airport | A Coruña Airport (LECO) |
| Time | Latitude | Longitude | Altitude | Speed | Heading |
|---|---|---|---|---|---|
| 2026-05-05 12:58 | 51.46844 | -0.48038 | 87 ft | 0 kts | 269° |
| 2026-05-05 13:11 | 51.46845 | -0.48014 | 88 ft | 4 kts | 268° |
| 2026-05-05 13:11 | 51.46846 | -0.47971 | 87 ft | 4 kts | 264° |
| 2026-05-05 13:11 | 51.46850 | -0.47928 | 88 ft | 4 kts | 257° |
| 2026-05-05 13:11 | 51.46859 | -0.47889 | 87 ft | 4 kts | 232° |
| 2026-05-05 13:12 | 51.46873 | -0.47871 | 87 ft | 0 kts | 180° |
| 2026-05-05 13:13 | 51.46840 | -0.47871 | 89 ft | 7 kts | 179° |
| 2026-05-05 13:14 | 51.46795 | -0.47869 | 85 ft | 6 kts | 179° |
| 2026-05-05 13:14 | 51.46752 | -0.47868 | 85 ft | 6 kts | 179° |
| 2026-05-05 13:14 | 51.46710 | -0.47868 | 85 ft | 6 kts | 180° |
| 2026-05-05 13:14 | 51.46658 | -0.47915 | 84 ft | 14 kts | 253° |
| 2026-05-05 13:15 | 51.46653 | -0.48062 | 85 ft | 12 kts | 269° |
| 2026-05-05 13:15 | 51.46652 | -0.48180 | 87 ft | 9 kts | 261° |
| 2026-05-05 13:15 | 51.46623 | -0.48216 | 87 ft | 8 kts | 197° |
| 2026-05-05 13:15 | 51.46566 | -0.48219 | 86 ft | 8 kts | 179° |
| 2026-05-05 13:16 | 51.46495 | -0.48214 | 87 ft | 7 kts | 174° |
| 2026-05-05 13:16 | 51.46479 | -0.48157 | 87 ft | 7 kts | 93° |
| 2026-05-05 13:16 | 51.46481 | -0.47881 | 83 ft | 62 kts | 89° |
| 2026-05-05 13:16 | 51.46485 | -0.46772 | 92 ft | 133 kts | 89° |
| 2026-05-05 13:17 | 51.46486 | -0.45646 | 226 ft | 157 kts | 88° |
| 2026-05-05 13:17 | 51.46475 | -0.43358 | 1352 ft | 159 kts | 89° |
| 2026-05-05 13:17 | 51.46408 | -0.42130 | 1738 ft | 177 kts | 98° |
| 2026-05-05 13:17 | 51.45820 | -0.40221 | 2278 ft | 209 kts | 127° |
| 2026-05-05 13:18 | 51.44825 | -0.38342 | 2936 ft | 231 kts | 125° |
| 2026-05-05 13:18 | 51.43814 | -0.36167 | 3638 ft | 254 kts | 123° |
| 2026-05-05 13:18 | 51.42643 | -0.33946 | 4567 ft | 267 kts | 139° |
| 2026-05-05 13:18 | 51.40995 | -0.32555 | 5769 ft | 271 kts | 165° |
| 2026-05-05 13:19 | 51.39129 | -0.32556 | 6918 ft | 275 kts | 194° |
| 2026-05-05 13:19 | 51.37480 | -0.34147 | 7806 ft | 284 kts | 226° |
| 2026-05-05 13:19 | 51.36149 | -0.36493 | 8870 ft | 286 kts | 227° |
| 2026-05-05 13:19 | 51.34724 | -0.38758 | 9899 ft | 291 kts | 224° |
| 2026-05-05 13:20 | 51.33202 | -0.41021 | 10474 ft | 311 kts | 219° |
| 2026-05-05 13:20 | 51.31196 | -0.42559 | 10809 ft | 335 kts | 190° |
| 2026-05-05 13:20 | 51.28795 | -0.42809 | 11120 ft | 358 kts | 182° |
| 2026-05-05 13:20 | 51.26282 | -0.43633 | 11349 ft | 382 kts | 200° |
| 2026-05-05 13:21 | 51.23942 | -0.45785 | 11865 ft | 395 kts | 219° |
| 2026-05-05 13:21 | 51.22126 | -0.49108 | 12577 ft | 402 kts | 239° |
| 2026-05-05 13:21 | 51.20810 | -0.53061 | 13353 ft | 406 kts | 243° |
| 2026-05-05 13:21 | 51.19544 | -0.57126 | 14032 ft | 411 kts | 244° |
| 2026-05-05 13:22 | 51.18306 | -0.61211 | 14657 ft | 416 kts | 245° |
| 2026-05-05 13:22 | 51.17050 | -0.65389 | 15363 ft | 419 kts | 244° |
| 2026-05-05 13:22 | 51.15803 | -0.69525 | 16037 ft | 421 kts | 244° |
| 2026-05-05 13:22 | 51.14519 | -0.73749 | 16676 ft | 425 kts | 244° |
| 2026-05-05 13:23 | 51.13217 | -0.77992 | 17364 ft | 427 kts | 244° |
| 2026-05-05 13:23 | 51.11897 | -0.82248 | 18033 ft | 430 kts | 244° |
| 2026-05-05 13:23 | 51.10568 | -0.86515 | 18606 ft | 433 kts | 243° |
| 2026-05-05 13:23 | 51.09225 | -0.90820 | 19175 ft | 435 kts | 243° |
| 2026-05-05 13:24 | 51.07877 | -0.95142 | 19747 ft | 437 kts | 243° |
| 2026-05-05 13:24 | 51.06529 | -0.99460 | 20338 ft | 437 kts | 243° |
| 2026-05-05 13:24 | 51.05173 | -1.03798 | 20891 ft | 439 kts | 243° |
| 2026-05-05 13:24 | 51.03812 | -1.08156 | 21394 ft | 441 kts | 243° |
| 2026-05-05 13:25 | 51.02450 | -1.12518 | 21911 ft | 442 kts | 243° |
| 2026-05-05 13:25 | 51.01071 | -1.16922 | 22409 ft | 445 kts | 243° |
| 2026-05-05 13:25 | 50.99685 | -1.21326 | 22868 ft | 447 kts | 243° |
| 2026-05-05 13:25 | 50.98293 | -1.25736 | 23379 ft | 448 kts | 243° |
| 2026-05-05 13:26 | 50.96771 | -1.30068 | 23768 ft | 451 kts | 236° |
| 2026-05-05 13:26 | 50.94850 | -1.33993 | 24110 ft | 452 kts | 227° |
| 2026-05-05 13:26 | 50.92557 | -1.37410 | 24511 ft | 453 kts | 218° |
| 2026-05-05 13:26 | 50.89977 | -1.40296 | 24845 ft | 455 kts | 213° |
| 2026-05-05 13:27 | 50.87334 | -1.43048 | 25211 ft | 456 kts | 213° |
| 2026-05-05 13:27 | 50.84678 | -1.45807 | 25593 ft | 457 kts | 213° |
| 2026-05-05 13:27 | 50.82009 | -1.48577 | 25897 ft | 460 kts | 212° |
| 2026-05-05 13:27 | 50.79336 | -1.51347 | 26232 ft | 461 kts | 212° |
| 2026-05-05 13:28 | 50.76651 | -1.54127 | 26650 ft | 461 kts | 212° |
| 2026-05-05 13:28 | 50.73971 | -1.56900 | 27104 ft | 459 kts | 212° |
| 2026-05-05 13:28 | 50.71310 | -1.59650 | 27621 ft | 457 kts | 212° |
| 2026-05-05 13:28 | 50.68686 | -1.62355 | 28112 ft | 455 kts | 212° |
| 2026-05-05 13:29 | 50.66008 | -1.65108 | 28616 ft | 454 kts | 212° |
| 2026-05-05 13:29 | 50.63401 | -1.67784 | 29134 ft | 452 kts | 212° |
| 2026-05-05 13:29 | 50.60768 | -1.70485 | 29622 ft | 451 kts | 212° |
| 2026-05-05 13:29 | 50.58150 | -1.73169 | 30098 ft | 449 kts | 212° |
| 2026-05-05 13:30 | 50.55532 | -1.75850 | 30523 ft | 448 kts | 212° |
| 2026-05-05 13:30 | 50.52919 | -1.78518 | 30928 ft | 447 kts | 212° |
| 2026-05-05 13:30 | 50.50318 | -1.81173 | 31305 ft | 447 kts | 212° |
| 2026-05-05 13:30 | 50.47710 | -1.83834 | 31698 ft | 446 kts | 212° |
| 2026-05-05 13:31 | 50.45112 | -1.86482 | 32084 ft | 446 kts | 212° |
| 2026-05-05 13:31 | 50.42501 | -1.89139 | 32421 ft | 447 kts | 212° |
| 2026-05-05 13:31 | 50.39888 | -1.91798 | 32794 ft | 447 kts | 212° |
| 2026-05-05 13:31 | 50.37281 | -1.94451 | 33129 ft | 448 kts | 213° |
| 2026-05-05 13:32 | 50.34650 | -1.97121 | 33490 ft | 449 kts | 213° |
| 2026-05-05 13:32 | 50.32033 | -1.99767 | 33845 ft | 449 kts | 213° |
| 2026-05-05 13:32 | 50.29404 | -2.02416 | 34193 ft | 449 kts | 213° |
| 2026-05-05 13:32 | 50.26776 | -2.05063 | 34514 ft | 449 kts | 213° |
| 2026-05-05 13:33 | 50.24156 | -2.07705 | 34821 ft | 450 kts | 213° |
| 2026-05-05 13:33 | 50.21516 | -2.10336 | 35138 ft | 450 kts | 212° |
| 2026-05-05 13:33 | 50.18870 | -2.12925 | 35450 ft | 450 kts | 212° |
| 2026-05-05 13:33 | 50.16205 | -2.15504 | 35736 ft | 451 kts | 211° |
| 2026-05-05 13:34 | 50.13536 | -2.18075 | 36039 ft | 450 kts | 211° |
| 2026-05-05 13:34 | 50.10876 | -2.20638 | 36325 ft | 451 kts | 211° |
| 2026-05-05 13:34 | 50.08202 | -2.23220 | 36572 ft | 452 kts | 211° |
| 2026-05-05 13:34 | 50.05563 | -2.25771 | 36853 ft | 452 kts | 211° |
| 2026-05-05 13:35 | 50.02882 | -2.28361 | 36962 ft | 454 kts | 211° |
| 2026-05-05 13:35 | 50.00203 | -2.30948 | 36976 ft | 454 kts | 211° |
| 2026-05-05 13:35 | 49.94841 | -2.36128 | 36976 ft | 454 kts | 211° |
| 2026-05-05 13:36 | 49.89455 | -2.41324 | 36978 ft | 456 kts | 211° |
| 2026-05-05 13:36 | 49.84060 | -2.46507 | 36977 ft | 456 kts | 211° |
| 2026-05-05 13:37 | 49.78660 | -2.51683 | 36978 ft | 457 kts | 211° |
| 2026-05-05 13:37 | 49.73242 | -2.56859 | 36985 ft | 457 kts | 211° |
| 2026-05-05 13:38 | 49.67833 | -2.62031 | 36989 ft | 457 kts | 211° |
| 2026-05-05 13:38 | 49.62414 | -2.67180 | 36986 ft | 458 kts | 211° |
| 2026-05-05 13:39 | 49.56978 | -2.72322 | 36983 ft | 458 kts | 211° |
| 2026-05-05 13:39 | 49.51548 | -2.77466 | 36975 ft | 459 kts | 211° |
| 2026-05-05 13:40 | 49.46135 | -2.82570 | 36978 ft | 459 kts | 211° |
| 2026-05-05 13:40 | 49.40686 | -2.87691 | 36985 ft | 460 kts | 210° |
| 2026-05-05 13:41 | 49.35233 | -2.92814 | 36984 ft | 460 kts | 211° |
| 2026-05-05 13:41 | 49.29763 | -2.97930 | 36984 ft | 460 kts | 211° |
| 2026-05-05 13:42 | 49.24299 | -3.03029 | 37003 ft | 460 kts | 211° |
| 2026-05-05 13:42 | 49.18838 | -3.08113 | 37005 ft | 459 kts | 210° |
| 2026-05-05 13:43 | 49.13372 | -3.13193 | 36989 ft | 460 kts | 210° |
| 2026-05-05 13:43 | 49.07900 | -3.18262 | 36981 ft | 461 kts | 211° |
| 2026-05-05 13:44 | 49.02403 | -3.23328 | 36984 ft | 461 kts | 211° |
| 2026-05-05 13:44 | 48.96946 | -3.28358 | 36984 ft | 461 kts | 210° |
| 2026-05-05 13:45 | 48.91464 | -3.33399 | 36986 ft | 460 kts | 210° |
| 2026-05-05 13:45 | 48.85990 | -3.38423 | 36983 ft | 460 kts | 210° |
| 2026-05-05 13:46 | 48.80503 | -3.43437 | 36981 ft | 460 kts | 210° |
| 2026-05-05 13:46 | 48.75026 | -3.48430 | 36983 ft | 459 kts | 210° |
| 2026-05-05 13:47 | 48.69545 | -3.53423 | 36971 ft | 460 kts | 211° |
| 2026-05-05 13:47 | 48.64046 | -3.58411 | 36958 ft | 462 kts | 210° |
| 2026-05-05 13:48 | 48.58519 | -3.63398 | 36974 ft | 462 kts | 210° |
| 2026-05-05 13:48 | 48.53000 | -3.68380 | 36984 ft | 462 kts | 210° |
| 2026-05-05 13:49 | 48.47485 | -3.73355 | 36981 ft | 462 kts | 210° |
| 2026-05-05 13:49 | 48.41996 | -3.78289 | 36985 ft | 462 kts | 210° |
| 2026-05-05 13:50 | 48.36481 | -3.83232 | 36993 ft | 461 kts | 210° |
| 2026-05-05 13:50 | 48.30956 | -3.88164 | 36973 ft | 461 kts | 210° |
| 2026-05-05 13:51 | 48.25431 | -3.93086 | 36973 ft | 463 kts | 210° |
| 2026-05-05 13:51 | 48.19887 | -3.98013 | 36970 ft | 463 kts | 210° |
| 2026-05-05 13:52 | 48.14330 | -4.02931 | 36982 ft | 463 kts | 210° |
| 2026-05-05 13:52 | 48.08779 | -4.07832 | 36983 ft | 463 kts | 210° |
| 2026-05-05 13:53 | 48.03257 | -4.12700 | 36982 ft | 463 kts | 210° |
| 2026-05-05 13:53 | 47.97712 | -4.17593 | 36988 ft | 463 kts | 210° |
| 2026-05-05 13:54 | 47.92163 | -4.22467 | 36994 ft | 463 kts | 209° |
| 2026-05-05 13:54 | 47.86601 | -4.27336 | 36975 ft | 463 kts | 210° |
| 2026-05-05 13:55 | 47.81033 | -4.32200 | 36963 ft | 464 kts | 210° |
| 2026-05-05 13:55 | 47.75532 | -4.37228 | 36971 ft | 465 kts | 212° |
| 2026-05-05 13:56 | 47.70104 | -4.42347 | 36969 ft | 465 kts | 212° |
| 2026-05-05 13:56 | 47.64627 | -4.47462 | 36967 ft | 465 kts | 211° |
| 2026-05-05 13:57 | 47.59122 | -4.52521 | 36979 ft | 465 kts | 211° |
| 2026-05-05 13:57 | 47.53618 | -4.57555 | 36982 ft | 465 kts | 211° |
| 2026-05-05 13:58 | 47.48106 | -4.62595 | 36980 ft | 466 kts | 211° |
| 2026-05-05 13:58 | 47.42640 | -4.67602 | 36980 ft | 465 kts | 211° |
| 2026-05-05 13:59 | 47.34380 | -4.75133 | 36985 ft | 465 kts | 211° |
| 2026-05-05 14:00 | 47.27101 | -4.81740 | 36981 ft | 465 kts | 211° |
| 2026-05-05 14:00 | 47.20653 | -4.87579 | 36983 ft | 466 kts | 211° |
| 2026-05-05 14:01 | 47.15126 | -4.92569 | 36983 ft | 466 kts | 211° |
| 2026-05-05 14:01 | 47.09590 | -4.97543 | 36970 ft | 466 kts | 211° |
| 2026-05-05 14:02 | 47.04055 | -5.02515 | 36974 ft | 467 kts | 211° |
| 2026-05-05 14:02 | 46.98547 | -5.07478 | 36989 ft | 468 kts | 211° |
| 2026-05-05 14:03 | 46.92968 | -5.12495 | 36986 ft | 468 kts | 211° |
| 2026-05-05 14:03 | 46.87448 | -5.17445 | 36994 ft | 468 kts | 211° |
| 2026-05-05 14:04 | 46.81892 | -5.22407 | 36998 ft | 468 kts | 211° |
| 2026-05-05 14:04 | 46.76325 | -5.27362 | 36994 ft | 468 kts | 211° |
| 2026-05-05 14:05 | 46.70767 | -5.32305 | 36972 ft | 468 kts | 211° |
| 2026-05-05 14:05 | 46.65197 | -5.37230 | 36976 ft | 469 kts | 212° |
| 2026-05-05 14:06 | 46.59612 | -5.42161 | 36980 ft | 469 kts | 212° |
| 2026-05-05 14:06 | 46.54034 | -5.47090 | 36983 ft | 470 kts | 212° |
| 2026-05-05 14:07 | 46.49387 | -5.51185 | 36989 ft | 470 kts | 211° |
| 2026-05-05 14:07 | 46.43797 | -5.56097 | 36999 ft | 470 kts | 212° |
| 2026-05-05 14:08 | 46.38201 | -5.60995 | 37011 ft | 470 kts | 212° |
| 2026-05-05 14:08 | 46.32590 | -5.65881 | 36984 ft | 470 kts | 212° |
| 2026-05-05 14:09 | 46.26979 | -5.70766 | 36983 ft | 471 kts | 212° |
| 2026-05-05 14:09 | 46.21363 | -5.75658 | 36991 ft | 472 kts | 212° |
| 2026-05-05 14:10 | 46.15731 | -5.80554 | 37005 ft | 472 kts | 212° |
| 2026-05-05 14:10 | 46.10096 | -5.85425 | 37006 ft | 472 kts | 212° |
| 2026-05-05 14:11 | 46.04458 | -5.90289 | 37009 ft | 473 kts | 211° |
| 2026-05-05 14:11 | 45.98809 | -5.95157 | 37004 ft | 473 kts | 212° |
| 2026-05-05 14:12 | 45.93165 | -6.00005 | 37007 ft | 473 kts | 212° |
| 2026-05-05 14:12 | 45.87552 | -6.04833 | 37016 ft | 473 kts | 212° |
| 2026-05-05 14:13 | 45.81906 | -6.09669 | 37013 ft | 473 kts | 212° |
| 2026-05-05 14:13 | 45.76240 | -6.14486 | 37018 ft | 473 kts | 211° |
| 2026-05-05 14:14 | 45.70582 | -6.19292 | 37019 ft | 473 kts | 212° |
| 2026-05-05 14:14 | 45.64919 | -6.24107 | 37026 ft | 473 kts | 212° |
| 2026-05-05 14:15 | 45.59267 | -6.28901 | 37019 ft | 473 kts | 212° |
| 2026-05-05 14:15 | 45.53611 | -6.33674 | 37023 ft | 472 kts | 212° |
| 2026-05-05 14:16 | 45.47951 | -6.38432 | 37022 ft | 472 kts | 212° |
| 2026-05-05 14:16 | 45.42321 | -6.43164 | 37028 ft | 473 kts | 212° |
| 2026-05-05 14:17 | 45.36664 | -6.47921 | 37025 ft | 472 kts | 212° |
| 2026-05-05 14:17 | 45.30995 | -6.52671 | 37031 ft | 472 kts | 212° |
| 2026-05-05 14:18 | 45.25330 | -6.57404 | 37028 ft | 473 kts | 212° |
| 2026-05-05 14:18 | 45.19648 | -6.62137 | 37027 ft | 473 kts | 212° |
| 2026-05-05 14:19 | 45.13970 | -6.66857 | 37024 ft | 473 kts | 212° |
| 2026-05-05 14:19 | 45.08275 | -6.71570 | 37030 ft | 474 kts | 212° |
| 2026-05-05 14:20 | 45.02587 | -6.76275 | 37041 ft | 474 kts | 212° |
| 2026-05-05 14:20 | 44.96896 | -6.80971 | 37039 ft | 474 kts | 212° |
| 2026-05-05 14:21 | 44.91204 | -6.85665 | 37043 ft | 474 kts | 212° |
| 2026-05-05 14:21 | 44.85496 | -6.90354 | 37041 ft | 474 kts | 212° |
| 2026-05-05 14:22 | 44.79783 | -6.95041 | 37043 ft | 475 kts | 212° |
| 2026-05-05 14:22 | 44.74076 | -6.99706 | 37049 ft | 474 kts | 212° |
| 2026-05-05 14:23 | 44.68364 | -7.04368 | 37050 ft | 474 kts | 212° |
| 2026-05-05 14:23 | 44.62659 | -7.09003 | 37052 ft | 474 kts | 212° |
| 2026-05-05 14:24 | 44.56935 | -7.13645 | 37029 ft | 473 kts | 212° |
| 2026-05-05 14:24 | 44.54117 | -7.15924 | 36780 ft | 463 kts | 212° |
| 2026-05-05 14:24 | 44.51381 | -7.18130 | 36264 ft | 458 kts | 212° |
| 2026-05-05 14:25 | 44.48622 | -7.20356 | 35593 ft | 457 kts | 212° |
| 2026-05-05 14:25 | 44.45868 | -7.22585 | 34853 ft | 458 kts | 213° |
| 2026-05-05 14:25 | 44.43107 | -7.24818 | 34103 ft | 459 kts | 213° |
| 2026-05-05 14:25 | 44.40331 | -7.27057 | 33189 ft | 461 kts | 213° |
| 2026-05-05 14:26 | 44.37525 | -7.29315 | 31908 ft | 471 kts | 213° |
| 2026-05-05 14:26 | 44.34656 | -7.31621 | 30728 ft | 479 kts | 213° |
| 2026-05-05 14:26 | 44.31764 | -7.33940 | 29961 ft | 482 kts | 213° |
| 2026-05-05 14:26 | 44.28811 | -7.36307 | 29234 ft | 493 kts | 213° |
| 2026-05-05 14:27 | 44.25836 | -7.38690 | 28531 ft | 491 kts | 212° |
| 2026-05-05 14:27 | 44.22884 | -7.41047 | 27850 ft | 486 kts | 212° |
| 2026-05-05 14:27 | 44.19965 | -7.43377 | 27182 ft | 480 kts | 212° |
| 2026-05-05 14:27 | 44.17116 | -7.45650 | 26535 ft | 474 kts | 212° |
| 2026-05-05 14:28 | 44.14268 | -7.47917 | 25900 ft | 468 kts | 212° |
| 2026-05-05 14:28 | 44.11453 | -7.50152 | 25275 ft | 462 kts | 211° |
| 2026-05-05 14:28 | 44.08678 | -7.52355 | 24667 ft | 457 kts | 211° |
| 2026-05-05 14:28 | 44.05929 | -7.54540 | 24069 ft | 452 kts | 211° |
| 2026-05-05 14:29 | 44.03218 | -7.56708 | 23455 ft | 447 kts | 213° |
| 2026-05-05 14:29 | 44.00807 | -7.59351 | 22748 ft | 438 kts | 228° |
| 2026-05-05 14:29 | 43.98814 | -7.62531 | 22056 ft | 435 kts | 232° |
| 2026-05-05 14:29 | 43.96837 | -7.65762 | 21377 ft | 442 kts | 232° |
| 2026-05-05 14:30 | 43.94820 | -7.69060 | 20717 ft | 455 kts | 232° |
| 2026-05-05 14:30 | 43.92762 | -7.72418 | 20076 ft | 457 kts | 232° |
| 2026-05-05 14:30 | 43.90704 | -7.75763 | 19447 ft | 454 kts | 231° |
| 2026-05-05 14:30 | 43.88656 | -7.79083 | 18834 ft | 451 kts | 231° |
| 2026-05-05 14:31 | 43.86629 | -7.82362 | 18227 ft | 447 kts | 231° |
| 2026-05-05 14:31 | 43.84615 | -7.85616 | 17545 ft | 443 kts | 231° |
| 2026-05-05 14:31 | 43.82658 | -7.88779 | 16884 ft | 438 kts | 231° |
| 2026-05-05 14:31 | 43.80684 | -7.91971 | 16222 ft | 434 kts | 231° |
| 2026-05-05 14:32 | 43.78731 | -7.95130 | 15590 ft | 429 kts | 231° |
| 2026-05-05 14:32 | 43.76801 | -7.98253 | 14993 ft | 425 kts | 231° |
| 2026-05-05 14:32 | 43.74910 | -8.01310 | 14506 ft | 422 kts | 231° |
| 2026-05-05 14:32 | 43.73005 | -8.04380 | 14017 ft | 419 kts | 231° |
| 2026-05-05 14:33 | 43.71114 | -8.07420 | 13500 ft | 415 kts | 231° |
| 2026-05-05 14:33 | 43.69257 | -8.10399 | 13103 ft | 401 kts | 231° |
| 2026-05-05 14:33 | 43.67467 | -8.13264 | 12733 ft | 387 kts | 231° |
| 2026-05-05 14:33 | 43.65737 | -8.16033 | 12366 ft | 374 kts | 231° |
| 2026-05-05 14:34 | 43.64064 | -8.18711 | 12004 ft | 362 kts | 231° |
| 2026-05-05 14:34 | 43.62442 | -8.21310 | 11651 ft | 352 kts | 231° |
| 2026-05-05 14:34 | 43.60866 | -8.23832 | 11296 ft | 342 kts | 231° |
| 2026-05-05 14:34 | 43.59332 | -8.26285 | 10948 ft | 334 kts | 231° |
| 2026-05-05 14:35 | 43.57832 | -8.28680 | 10605 ft | 326 kts | 231° |
| 2026-05-05 14:35 | 43.56359 | -8.31029 | 10265 ft | 320 kts | 231° |
| 2026-05-05 14:35 | 43.54915 | -8.33329 | 9920 ft | 314 kts | 231° |
| 2026-05-05 14:35 | 43.53509 | -8.35568 | 9549 ft | 301 kts | 231° |
| 2026-05-05 14:36 | 43.52184 | -8.37671 | 9103 ft | 286 kts | 232° |
| 2026-05-05 14:36 | 43.50890 | -8.39733 | 8379 ft | 283 kts | 232° |
| 2026-05-05 14:36 | 43.49611 | -8.41770 | 7658 ft | 280 kts | 231° |
| 2026-05-05 14:36 | 43.48342 | -8.43788 | 6961 ft | 277 kts | 231° |
| 2026-05-05 14:37 | 43.47105 | -8.45753 | 6271 ft | 274 kts | 231° |
| 2026-05-05 14:37 | 43.45850 | -8.47746 | 5782 ft | 268 kts | 232° |
| 2026-05-05 14:37 | 43.44671 | -8.49612 | 5654 ft | 256 kts | 232° |
| 2026-05-05 14:37 | 43.43529 | -8.51418 | 5523 ft | 244 kts | 231° |
| 2026-05-05 14:38 | 43.42439 | -8.53140 | 5399 ft | 233 kts | 231° |
| 2026-05-05 14:38 | 43.41408 | -8.54770 | 5269 ft | 223 kts | 231° |
| 2026-05-05 14:38 | 43.40406 | -8.56355 | 5111 ft | 217 kts | 232° |
| 2026-05-05 14:38 | 43.39417 | -8.57917 | 5008 ft | 217 kts | 232° |
| 2026-05-05 14:39 | 43.38425 | -8.59485 | 4996 ft | 217 kts | 232° |
| 2026-05-05 14:39 | 43.37307 | -8.60851 | 4999 ft | 212 kts | 213° |
| 2026-05-05 14:39 | 43.35971 | -8.61621 | 5002 ft | 205 kts | 194° |
| 2026-05-05 14:39 | 43.34561 | -8.61765 | 5018 ft | 204 kts | 176° |
| 2026-05-05 14:40 | 43.33181 | -8.61305 | 4893 ft | 206 kts | 158° |
| 2026-05-05 14:40 | 43.31966 | -8.60270 | 4341 ft | 212 kts | 137° |
| 2026-05-05 14:40 | 43.31032 | -8.58678 | 3758 ft | 218 kts | 117° |
| 2026-05-05 14:40 | 43.30458 | -8.56766 | 3181 ft | 216 kts | 108° |
| 2026-05-05 14:41 | 43.29934 | -8.54858 | 2796 ft | 208 kts | 108° |
| 2026-05-05 14:41 | 43.29427 | -8.53037 | 2631 ft | 201 kts | 109° |
| 2026-05-05 14:41 | 43.28926 | -8.51241 | 2545 ft | 201 kts | 109° |
| 2026-05-05 14:41 | 43.28430 | -8.49468 | 2403 ft | 197 kts | 109° |
| 2026-05-05 14:42 | 43.27955 | -8.47773 | 2115 ft | 186 kts | 109° |
| 2026-05-05 14:42 | 43.27499 | -8.46138 | 1866 ft | 179 kts | 110° |
| 2026-05-05 14:42 | 43.27059 | -8.44566 | 1617 ft | 175 kts | 108° |
| 2026-05-05 14:42 | 43.26639 | -8.43060 | 1490 ft | 163 kts | 103° |
| 2026-05-05 14:43 | 43.26634 | -8.41648 | 1387 ft | 138 kts | 64° |
| 2026-05-05 14:43 | 43.27204 | -8.40589 | 1097 ft | 142 kts | 41° |
| 2026-05-05 14:43 | 43.27945 | -8.39667 | 771 ft | 144 kts | 34° |
| 2026-05-05 14:43 | 43.28752 | -8.38904 | 482 ft | 141 kts | 24° |
| 2026-05-05 14:44 | 43.29607 | -8.38216 | 351 ft | 156 kts | 26° |
| 2026-05-05 14:44 | 43.30669 | -8.37323 | 778 ft | 200 kts | 28° |
| 2026-05-05 14:44 | 43.31836 | -8.36327 | 1659 ft | 193 kts | 30° |
| 2026-05-05 14:44 | 43.32952 | -8.35321 | 2524 ft | 191 kts | 30° |
| 2026-05-05 14:45 | 43.34071 | -8.34298 | 3224 ft | 198 kts | 27° |
| 2026-05-05 14:45 | 43.35258 | -8.33366 | 3358 ft | 194 kts | 23° |
| 2026-05-05 14:45 | 43.36473 | -8.32564 | 3408 ft | 196 kts | 22° |
| 2026-05-05 14:45 | 43.37711 | -8.31776 | 3313 ft | 197 kts | 21° |
| 2026-05-05 14:46 | 43.38964 | -8.31018 | 3304 ft | 200 kts | 21° |
| 2026-05-05 14:46 | 43.40271 | -8.30452 | 3469 ft | 196 kts | 358° |
| 2026-05-05 14:46 | 43.41662 | -8.30995 | 3503 ft | 231 kts | 325° |
| 2026-05-05 14:46 | 43.42768 | -8.32695 | 3509 ft | 247 kts | 297° |
| 2026-05-05 14:47 | 43.43403 | -8.34901 | 3501 ft | 250 kts | 290° |
| 2026-05-05 14:47 | 43.43952 | -8.37198 | 3506 ft | 253 kts | 288° |
| 2026-05-05 14:47 | 43.44180 | -8.39591 | 3508 ft | 255 kts | 266° |
| 2026-05-05 14:47 | 43.43630 | -8.41921 | 3678 ft | 263 kts | 242° |
| 2026-05-05 14:48 | 43.42716 | -8.44127 | 4570 ft | 268 kts | 243° |
| 2026-05-05 14:48 | 43.41815 | -8.46370 | 4886 ft | 267 kts | 243° |
| 2026-05-05 14:48 | 43.40925 | -8.48616 | 4976 ft | 268 kts | 243° |
| 2026-05-05 14:48 | 43.40043 | -8.50836 | 4997 ft | 256 kts | 244° |
| 2026-05-05 14:49 | 43.39211 | -8.52914 | 4941 ft | 241 kts | 244° |
| 2026-05-05 14:49 | 43.38425 | -8.54882 | 4856 ft | 229 kts | 244° |
| 2026-05-05 14:49 | 43.37678 | -8.56753 | 4778 ft | 218 kts | 243° |
| 2026-05-05 14:49 | 43.36889 | -8.58480 | 4701 ft | 211 kts | 231° |
| 2026-05-05 14:50 | 43.35744 | -8.59705 | 4624 ft | 209 kts | 208° |
| 2026-05-05 14:50 | 43.34359 | -8.60255 | 4543 ft | 213 kts | 185° |
| 2026-05-05 14:50 | 43.32886 | -8.60042 | 4271 ft | 217 kts | 161° |
| 2026-05-05 14:50 | 43.31572 | -8.59030 | 3964 ft | 219 kts | 137° |
| 2026-05-05 14:51 | 43.30641 | -8.57390 | 3656 ft | 220 kts | 113° |
| 2026-05-05 14:51 | 43.30081 | -8.55426 | 3357 ft | 222 kts | 109° |
| 2026-05-05 14:51 | 43.29531 | -8.53430 | 3051 ft | 224 kts | 109° |
| 2026-05-05 14:51 | 43.28975 | -8.51421 | 2737 ft | 227 kts | 109° |
| 2026-05-05 14:52 | 43.28408 | -8.49385 | 2396 ft | 229 kts | 109° |
| 2026-05-05 14:52 | 43.27835 | -8.47335 | 2054 ft | 231 kts | 109° |
| 2026-05-05 14:52 | 43.27269 | -8.45362 | 1710 ft | 211 kts | 109° |
| 2026-05-05 14:52 | 43.26737 | -8.43592 | 1392 ft | 192 kts | 109° |
| 2026-05-05 14:53 | 43.26342 | -8.41926 | 1144 ft | 176 kts | 91° |
| 2026-05-05 14:53 | 43.26670 | -8.40504 | 1084 ft | 145 kts | 36° |
| 2026-05-05 14:53 | 43.27542 | -8.39873 | 875 ft | 148 kts | 16° |
| 2026-05-05 14:53 | 43.28444 | -8.39172 | 576 ft | 145 kts | 27° |
| 2026-05-05 14:54 | 43.29306 | -8.38465 | 298 ft | 144 kts | 26° |
| 2026-05-05 14:54 | 43.29842 | -8.38030 | 273 ft | 123 kts | 32° |
| 2026-05-05 14:54 | 43.30405 | -8.37563 | 273 ft | 69 kts | 31° |
| 2026-05-05 14:54 | 43.30701 | -8.37321 | 275 ft | 42 kts | 31° |
| 2026-05-05 14:55 | 43.30927 | -8.37188 | 276 ft | 11 kts | 359° |
| 2026-05-05 14:55 | 43.30962 | -8.37162 | 277 ft | 5 kts | 81° |
| 2026-05-05 14:55 | 43.30918 | -8.37148 | 276 ft | 15 kts | 193° |
| 2026-05-05 14:55 | 43.30770 | -8.37264 | 275 ft | 33 kts | 211° |
| 2026-05-05 14:56 | 43.30565 | -8.37432 | 274 ft | 35 kts | 211° |
| 2026-05-05 14:56 | 43.30349 | -8.37612 | 272 ft | 37 kts | 211° |
| 2026-05-05 14:56 | 43.30228 | -8.37738 | 273 ft | 12 kts | 260° |
| 2026-05-05 14:56 | 43.30263 | -8.37848 | 273 ft | 8 kts | 302° |
| 2026-05-05 14:57 | 43.30268 | -8.37905 | 274 ft | 0 kts | 245° |
| 2026-05-05 14:57 | 43.30252 | -8.37915 | 276 ft | 9 kts | 188° |
| 2026-05-05 14:57 | 43.30226 | -8.37954 | 274 ft | 4 kts | 273° |
| 2026-05-05 14:57 | 43.30239 | -8.37991 | 278 ft | 6 kts | 301° |
| 2026-05-05 14:58 | 43.30247 | -8.38010 | 274 ft | 1 kts | 301° |
| 2026-05-05 14:58 | 43.30248 | -8.38013 | 274 ft | 0 kts | 301° |